Terminal Aerodrome Forecast
Issued by NWS Quad Cities IA IL

Home | Current Version | Previous Version | Text Only | Print | Product List | Glossary On
Versions: 1 2 3 4 5 6 7 8 9 10 11 12 13 14 15 16 17 18 19 20 21
737
FTUS43 KDVN 110533
TAFDBQ
TAF
KDBQ 110533Z 1106/1206 18007KT P6SM BKN100
     FM111600 20010KT P6SM BKN150
     FM112000 31015G24KT P6SM OVC025 PROB30 1120/1123 5SM -SN
     FM112300 33020G30KT P6SM OVC020=

USA.gov is the U.S. government's official web portal to all federal, state and local government web resources and services.